Time;durP1;ratioP1;P1;durP2;ratioP2;P2;SDS_P1;SDS_P2;PMS_P1;PMS_P2;Temp;Humidity;BMP_temperature;BMP_pressure;BME280_temperature;BME280_humidity;BME280_pressure;Samples;Min_cycle;Max_cycle;Signal;HPM_P1;HPM_P2
2022/04/28 00:00:37;;;;;;;4.28;2.92;;;;;;;6.69;63.10;100818.64;1722106;81;21217;-75
2022/04/28 00:03:05;;;;;;;5.78;3.15;;;;;;;6.65;63.21;100817.94;1748242;80;21060;-75
2022/04/28 00:05:35;;;;;;;4.78;2.92;;;;;;;6.64;63.31;100820.19;1742130;80;21669;-75
2022/04/28 00:08:01;;;;;;;6.45;3.05;;;;;;;6.62;63.40;100822.53;1718121;82;21059;-75
2022/04/28 00:10:29;;;;;;;4.65;3.02;;;;;;;6.58;63.46;100817.46;1721728;82;21504;-75
2022/04/28 00:12:57;;;;;;;5.90;3.15;;;;;;;6.56;63.56;100818.02;1702385;82;21076;-75
2022/04/28 00:15:25;;;;;;;5.40;3.15;;;;;;;6.55;63.59;100827.27;1752996;80;22214;-75
2022/04/28 00:17:53;;;;;;;5.72;2.90;;;;;;;6.55;63.67;100822.86;1714905;80;22312;-75
2022/04/28 00:20:20;;;;;;;5.62;2.90;;;;;;;6.56;63.67;100828.52;1708456;83;21103;-74
2022/04/28 00:22:46;;;;;;;5.65;2.70;;;;;;;6.53;63.62;100827.35;1731343;80;21495;-75
2022/04/28 00:25:13;;;;;;;6.25;2.77;;;;;;;6.50;63.62;100826.69;1737918;80;21119;-73
2022/04/28 00:27:41;;;;;;;4.17;2.77;;;;;;;6.47;63.55;100831.65;1758569;80;21032;-74
2022/04/28 00:30:09;;;;;;;6.05;3.00;;;;;;;6.43;63.49;100829.26;1728305;80;22331;-74
2022/04/28 00:32:36;;;;;;;6.85;3.22;;;;;;;6.40;63.50;100828.12;1710796;81;21060;-74
2022/04/28 00:35:04;;;;;;;5.00;2.90;;;;;;;6.40;63.50;100828.97;1739650;80;21275;-74
2022/04/28 00:37:30;;;;;;;9.60;4.55;;;;;;;6.41;63.53;100828.50;1717600;80;21465;-73
2022/04/28 00:39:58;;;;;;;11.85;6.25;;;;;;;6.38;63.69;100829.99;1720073;80;21036;-73
2022/04/28 00:42:26;;;;;;;12.70;6.12;;;;;;;6.35;63.76;100820.48;1747794;81;21040;-73
2022/04/28 00:44:54;;;;;;;11.93;5.60;;;;;;;6.33;63.81;100822.36;1732089;81;21137;-73
2022/04/28 00:47:22;;;;;;;10.95;5.17;;;;;;;6.33;63.87;100825.45;1724500;82;21168;-74
2022/04/28 00:52:38;;;;;;;8.33;4.60;;;;;;;6.32;64.00;100824.60;1746307;80;21032;-73
2022/04/28 00:55:05;;;;;;;9.23;4.75;;;;;;;6.30;63.95;100824.69;1744848;80;21913;-73
2022/04/28 00:57:33;;;;;;;8.00;4.60;;;;;;;6.31;63.93;100825.53;1733142;81;20971;-73
2022/04/28 01:00:00;;;;;;;7.87;4.75;;;;;;;6.30;64.03;100831.25;1678822;82;21065;-73
2022/04/28 01:02:27;;;;;;;9.55;4.62;;;;;;;6.30;64.11;100826.00;1676484;84;21052;-73
2022/04/28 01:04:55;;;;;;;8.38;4.78;;;;;;;6.30;64.17;100831.25;1694077;84;21005;-73
2022/04/28 01:07:22;;;;;;;5.65;4.12;;;;;;;6.31;64.18;100832.09;1728374;81;21970;-74
2022/04/28 01:09:50;;;;;;;8.30;4.20;;;;;;;6.33;64.20;100830.70;1746870;80;21056;-75
2022/04/28 01:12:20;;;;;;;8.10;4.15;;;;;;;6.30;64.22;100827.31;1715041;82;21095;-75
2022/04/28 01:14:50;;;;;;;7.37;3.90;;;;;;;6.26;64.29;100827.08;1719182;80;21044;-74
2022/04/28 01:17:20;;;;;;;6.55;3.77;;;;;;;6.20;64.44;100823.50;1745897;81;22035;-74
2022/04/28 01:19:48;;;;;;;6.05;3.72;;;;;;;6.14;64.67;100821.20;1766324;80;21808;-76
2022/04/28 01:22:16;;;;;;;6.28;3.70;;;;;;;6.10;64.83;100821.45;1762346;80;21452;-75
2022/04/28 01:24:45;;;;;;;5.50;3.30;;;;;;;6.05;64.90;100820.37;1694935;82;21021;-75
2022/04/28 01:27:13;;;;;;;5.80;3.55;;;;;;;6.00;64.98;100819.33;1732370;82;21071;-74
2022/04/28 01:29:42;;;;;;;10.45;4.60;;;;;;;5.99;65.02;100818.09;1729194;80;21462;-75
2022/04/28 01:32:11;;;;;;;9.15;4.60;;;;;;;5.95;65.07;100816.55;1725107;81;20994;-74
2022/04/28 01:34:41;;;;;;;8.43;4.33;;;;;;;5.92;65.09;100814.10;1757866;80;21005;-73
2022/04/28 01:37:08;;;;;;;6.95;4.10;;;;;;;5.87;65.19;100812.98;1713438;82;21056;-74
2022/04/28 01:39:35;;;;;;;6.12;3.60;;;;;;;5.85;65.42;100821.41;1720027;82;21487;-72
2022/04/28 01:42:05;;;;;;;6.03;3.85;;;;;;;5.80;65.56;100829.98;1727251;81;21063;-72
2022/04/28 01:44:33;;;;;;;7.00;4.12;;;;;;;5.80;65.64;100826.05;1747064;80;22565;-72
2022/04/28 01:47:02;;;;;;;8.45;4.15;;;;;;;5.81;65.64;100831.67;1741478;80;21025;-73
2022/04/28 01:49:30;;;;;;;6.95;4.15;;;;;;;5.80;65.61;100825.21;1716499;81;20980;-74
2022/04/28 01:55:10;;;;;;;7.47;3.77;;;;;;;5.79;65.53;100818.25;1715292;82;21026;-74
2022/04/28 01:57:40;;;;;;;7.72;3.62;;;;;;;5.74;65.56;100819.34;1715677;80;21079;-74
2022/04/28 02:00:12;;;;;;;6.92;4.03;;;;;;;5.69;65.66;100825.31;1733992;80;21171;-74
2022/04/28 02:02:45;;;;;;;6.78;4.08;;;;;;;5.67;65.73;100827.60;1711037;82;21471;-74
2022/04/28 02:05:13;;;;;;;6.72;4.15;;;;;;;5.64;65.71;100822.06;1730082;81;21033;-74
2022/04/28 02:07:40;;;;;;;7.90;3.77;;;;;;;5.63;65.67;100826.08;1726216;80;21056;-74
2022/04/28 02:10:09;;;;;;;8.85;4.12;;;;;;;5.60;65.66;100823.63;1739905;80;22284;-74
2022/04/28 02:12:38;;;;;;;5.78;3.90;;;;;;;5.57;65.78;100823.77;1712594;82;21008;-74
2022/04/28 02:15:24;;;;;;;7.10;3.80;;;;;;;5.57;65.88;100825.08;1741431;81;21006;-73
2022/04/28 02:18:11;;;;;;;10.00;3.95;;;;;;;5.51;65.98;100822.33;1678010;84;21569;-74
2022/04/28 02:20:37;;;;;;;7.12;3.37;;;;;;;5.50;66.15;100824.99;1670586;85;21508;-74
2022/04/28 02:23:05;;;;;;;8.15;3.77;;;;;;;5.46;66.28;100825.62;1715038;81;21846;-73
2022/04/28 02:25:35;;;;;;;5.55;3.65;;;;;;;5.44;66.27;100820.94;1766163;80;21008;-74
2022/04/28 02:28:04;;;;;;;7.55;3.62;;;;;;;5.39;66.42;100821.16;1761460;80;21005;-73
2022/04/28 02:30:32;;;;;;;6.08;3.70;;;;;;;5.39;66.54;100825.08;1754010;80;21052;-73
2022/04/28 02:33:10;;;;;;;5.45;3.67;;;;;;;5.37;66.59;100816.45;1671719;82;21488;-73
2022/04/28 02:35:39;;;;;;;6.15;3.52;;;;;;;5.37;66.74;100815.61;1737314;80;21906;-73
2022/04/28 02:38:08;;;;;;;5.87;3.90;;;;;;;5.36;66.89;100818.70;1712570;80;21033;-72
2022/04/28 02:40:36;;;;;;;7.03;3.80;;;;;;;5.36;66.87;100822.63;1729968;81;21578;-73
2022/04/28 02:43:04;;;;;;;6.05;3.55;;;;;;;5.36;66.85;100820.47;1735256;81;21146;-72
2022/04/28 02:45:31;;;;;;;5.58;3.65;;;;;;;5.35;66.82;100824.02;1744326;81;21534;-74
2022/04/28 02:47:59;;;;;;;6.35;3.65;;;;;;;5.34;66.91;100824.95;1731305;80;21820;-74
2022/04/28 02:50:28;;;;;;;4.95;3.62;;;;;;;5.34;66.97;100828.88;1763723;80;21500;-73
2022/04/28 02:52:56;;;;;;;5.90;4.00;;;;;;;5.37;67.04;100832.64;1714368;82;21057;-75
2022/04/28 02:55:23;;;;;;;5.78;3.75;;;;;;;5.41;67.15;100830.27;1743697;80;21146;-74
2022/04/28 02:57:50;;;;;;;5.72;3.58;;;;;;;5.43;67.17;100833.19;1737367;80;21035;-75
2022/04/28 03:00:17;;;;;;;5.62;3.20;;;;;;;5.46;67.16;100829.55;1724163;82;21743;-74
2022/04/28 03:02:46;;;;;;;5.08;3.67;;;;;;;5.49;67.19;100837.71;1719061;82;20984;-74
2022/04/28 03:05:13;;;;;;;5.03;3.62;;;;;;;5.51;67.25;100834.58;1725374;81;21170;-75
2022/04/28 03:10:53;;;;;;;5.10;3.72;;;;;;;5.51;67.45;100836.73;1732529;81;21028;-75
2022/04/28 03:13:26;;;;;;;7.65;3.52;;;;;;;5.54;67.52;100838.34;1743148;82;21009;-75
2022/04/28 03:15:55;;;;;;;6.28;4.05;;;;;;;5.55;67.59;100839.56;1720060;80;20999;-75
2022/04/28 03:18:24;;;;;;;4.70;3.02;;;;;;;5.59;67.63;100841.09;1714333;82;21032;-74
2022/04/28 03:20:50;;;;;;;5.87;3.62;;;;;;;5.63;67.73;100842.65;1707941;82;21068;-74
2022/04/28 03:23:19;;;;;;;6.28;3.70;;;;;;;5.65;67.91;100843.41;1694445;83;21543;-73
2022/04/28 03:25:45;;;;;;;4.10;3.00;;;;;;;5.69;68.02;100846.70;1733316;80;22441;-74
2022/04/28 03:28:15;;;;;;;5.92;3.65;;;;;;;5.72;68.15;100842.17;1756197;80;21563;-73
2022/04/28 03:30:42;;;;;;;3.98;3.08;;;;;;;5.75;68.28;100842.01;1726467;82;21395;-73
2022/04/28 03:33:14;;;;;;;4.85;3.25;;;;;;;5.85;68.36;100834.98;1710574;81;21027;-76
2022/04/28 03:35:41;;;;;;;4.60;3.12;;;;;;;6.00;68.30;100834.22;1714417;81;21040;-74
2022/04/28 03:38:13;;;;;;;6.83;3.50;;;;;;;6.11;68.33;100831.02;1727458;80;21050;-74
2022/04/28 03:40:42;;;;;;;6.10;3.30;;;;;;;6.19;68.32;100841.48;1722447;81;21076;-75
2022/04/28 03:43:11;;;;;;;6.77;3.40;;;;;;;6.27;68.33;100839.73;1722087;81;21012;-71
2022/04/28 03:45:41;;;;;;;4.97;3.40;;;;;;;6.36;68.32;100841.02;1724438;81;21020;-72
2022/04/28 03:48:09;;;;;;;4.83;3.37;;;;;;;6.44;68.27;100846.23;1732180;81;21103;-71
2022/04/28 03:50:38;;;;;;;6.55;3.55;;;;;;;6.52;68.23;100852.38;1742245;81;21922;-71
2022/04/28 03:53:05;;;;;;;4.80;3.65;;;;;;;6.60;68.27;100840.52;1758770;80;20993;-72
2022/04/28 03:55:31;;;;;;;6.12;3.75;;;;;;;6.69;68.17;100841.80;1750059;80;21051;-71
2022/04/28 03:57:59;;;;;;;5.70;3.90;;;;;;;6.82;68.01;100845.88;1725915;81;21479;-72
2022/04/28 04:00:26;;;;;;;10.00;4.00;;;;;;;6.91;67.87;100851.93;1706942;82;21524;-73
2022/04/28 04:02:56;;;;;;;6.50;3.75;;;;;;;7.02;67.67;100858.73;1755559;80;21074;-72
2022/04/28 04:05:22;;;;;;;6.95;4.28;;;;;;;7.12;67.68;100860.36;1755811;80;21060;-72
2022/04/28 04:07:50;;;;;;;6.20;4.10;;;;;;;7.19;67.59;100860.40;1758694;80;21479;-72
2022/04/28 04:10:18;;;;;;;7.28;4.15;;;;;;;7.28;67.54;100865.59;1727993;81;20993;-73
2022/04/28 04:12:48;;;;;;;10.58;5.00;;;;;;;7.38;67.46;100875.95;1733243;81;21186;-68
2022/04/28 04:15:16;;;;;;;9.28;4.47;;;;;;;7.47;67.47;100880.67;1729392;80;23145;-68
2022/04/28 04:17:52;;;;;;;7.90;5.08;;;;;;;7.56;67.48;100871.41;1728493;82;21052;-72
2022/04/28 04:20:21;;;;;;;7.80;5.67;;;;;;;7.66;67.39;100877.81;1743166;80;21023;-71
2022/04/28 04:22:50;;;;;;;10.88;5.45;;;;;;;7.79;67.34;100874.81;1724804;81;21498;-71
2022/04/28 04:25:18;;;;;;;10.68;5.97;;;;;;;7.93;67.46;100874.84;1729632;80;21052;-71
2022/04/28 04:27:47;;;;;;;8.33;5.55;;;;;;;8.07;67.51;100873.16;1739638;80;22545;-71
2022/04/28 04:33:05;;;;;;;8.35;6.28;;;;;;;8.41;67.37;100880.70;1719614;81;21049;-72
2022/04/28 04:35:33;;;;;;;10.55;6.97;;;;;;;8.57;67.12;100884.05;1735428;80;20992;-73
2022/04/28 04:38:00;;;;;;;12.07;6.67;;;;;;;8.70;66.85;100882.83;1755336;80;21009;-79
2022/04/28 04:40:30;;;;;;;10.18;6.42;;;;;;;8.80;66.81;100889.67;1753374;80;21563;-71
2022/04/28 04:42:59;;;;;;;15.20;9.95;;;;;;;8.88;66.80;100886.92;1727080;81;21073;-71
2022/04/28 04:45:25;;;;;;;10.60;7.60;;;;;;;8.96;66.91;100893.47;1727510;80;21566;-71
2022/04/28 04:48:10;;;;;;;10.68;6.62;;;;;;;9.04;66.83;100895.14;1677997;80;21419;-71
2022/04/28 04:50:49;;;;;;;11.10;6.72;;;;;;;9.12;66.75;100901.61;1719971;82;20993;-74
2022/04/28 04:53:20;;;;;;;9.73;6.78;;;;;;;9.22;66.66;100911.08;1720306;82;21852;-73
2022/04/28 04:55:49;;;;;;;9.15;6.72;;;;;;;9.33;66.69;100918.28;1712638;82;21048;-75
2022/04/28 04:58:16;;;;;;;9.43;6.30;;;;;;;9.46;66.47;100919.19;1709458;82;21063;-70
2022/04/28 05:00:44;;;;;;;9.35;5.70;;;;;;;9.58;66.27;100918.84;1712326;81;21174;-71
2022/04/28 05:03:24;;;;;;;9.15;6.30;;;;;;;9.71;65.93;100922.34;1717255;82;21047;-72
2022/04/28 05:06:03;;;;;;;9.40;6.12;;;;;;;9.85;65.08;100927.55;1757534;80;21884;-73
2022/04/28 05:08:39;;;;;;;9.60;5.83;;;;;;;10.01;64.72;100933.93;1740658;81;21105;-73
2022/04/28 05:11:08;;;;;;;10.58;6.10;;;;;;;10.17;64.39;100933.73;1741904;80;21048;-73
2022/04/28 05:13:38;;;;;;;7.65;5.95;;;;;;;10.31;64.01;100935.81;1753630;80;21590;-73
2022/04/28 05:16:07;;;;;;;10.43;6.05;;;;;;;10.47;63.51;100933.44;1677793;82;21096;-70
2022/04/28 05:18:45;;;;;;;9.13;5.85;;;;;;;10.62;62.82;100927.09;1714591;81;22218;-74
2022/04/28 05:21:19;;;;;;;8.85;6.70;;;;;;;10.81;62.30;100928.79;1715748;80;21135;-73
2022/04/28 05:24:00;;;;;;;8.30;6.17;;;;;;;10.98;61.96;100926.70;1756509;80;21519;-74
2022/04/28 05:26:46;;;;;;;9.48;6.00;;;;;;;11.11;61.14;100919.12;1714886;81;21029;-75
2022/04/28 05:29:17;;;;;;;11.50;5.30;;;;;;;11.23;60.17;100925.30;1694948;80;20994;-77
2022/04/28 05:32:02;;;;;;;8.15;5.00;;;;;;;11.36;59.45;100927.40;1749599;80;22411;-75
2022/04/28 05:34:40;;;;;;;10.13;4.70;;;;;;;11.46;58.83;100928.41;1720391;81;21200;-71
2022/04/28 05:37:15;;;;;;;7.65;4.12;;;;;;;11.59;58.57;100931.48;1733810;80;21004;-68
2022/04/28 05:39:42;;;;;;;8.38;4.20;;;;;;;11.71;57.90;100933.20;1742259;81;21001;-85
2022/04/28 05:42:09;;;;;;;5.72;3.60;;;;;;;11.85;57.04;100922.91;1737032;80;21036;-75
2022/04/28 05:47:24;;;;;;;17.10;13.18;;;;;;;12.09;54.11;100925.51;1745806;81;21049;-76
2022/04/28 05:49:53;;;;;;;7.45;4.40;;;;;;;12.21;52.87;100919.25;1749284;81;21088;-75
2022/04/28 05:52:21;;;;;;;6.08;3.60;;;;;;;12.29;52.49;100919.51;1753328;81;20996;-76
2022/04/28 05:54:52;;;;;;;6.45;3.30;;;;;;;12.36;52.30;100922.05;1752824;80;21012;-73
2022/04/28 05:57:18;;;;;;;7.00;3.30;;;;;;;12.43;51.68;100926.36;1714029;80;21912;-74
2022/04/28 05:59:46;;;;;;;5.95;3.50;;;;;;;12.54;51.21;100929.01;1699537;83;21579;-73
2022/04/28 06:02:31;;;;;;;7.58;3.65;;;;;;;12.67;51.02;100925.77;1720406;80;21016;-74
2022/04/28 06:04:58;;;;;;;4.78;3.10;;;;;;;12.78;50.48;100930.22;1730340;80;22180;-76
2022/04/28 06:07:24;;;;;;;7.30;3.90;;;;;;;12.87;49.64;100930.32;1717283;82;20969;-79
2022/04/28 06:09:53;;;;;;;8.70;4.37;;;;;;;13.02;49.91;100924.25;1751186;81;22485;-74
2022/04/28 06:12:24;;;;;;;8.08;4.35;;;;;;;13.13;49.96;100925.58;1738406;80;21047;-76
2022/04/28 06:15:11;;;;;;;5.08;4.00;;;;;;;13.24;49.21;100926.05;1702003;81;21594;-75
2022/04/28 06:17:46;;;;;;;6.28;4.10;;;;;;;13.32;48.83;100926.77;1724666;81;21077;-80
2022/04/28 06:20:13;;;;;;;8.50;4.30;;;;;;;13.40;48.86;100929.11;1711548;82;21127;-76
2022/04/28 06:22:58;;;;;;;10.98;5.62;;;;;;;13.51;48.38;100936.67;1721214;81;22777;-76
2022/04/28 06:25:28;;;;;;;10.40;5.70;;;;;;;13.61;48.73;100930.98;1726091;80;21524;-77
2022/04/28 06:27:57;;;;;;;11.95;6.58;;;;;;;13.70;48.79;100929.73;1712773;81;21403;-78
2022/04/28 06:30:25;;;;;;;13.65;7.45;;;;;;;13.78;48.76;100934.38;1718743;81;21080;-77
2022/04/28 06:32:53;;;;;;;14.30;5.97;;;;;;;13.88;48.83;100933.12;1721675;81;21023;-76
2022/04/28 06:35:23;;;;;;;13.90;5.97;;;;;;;13.98;48.90;100941.50;1744258;80;21030;-77
2022/04/28 06:37:52;;;;;;;9.83;5.97;;;;;;;14.06;48.82;100935.55;1748439;81;21017;-73
2022/04/28 06:40:21;;;;;;;9.18;5.45;;;;;;;14.15;49.12;100943.22;1733888;80;21166;-74
2022/04/28 06:42:52;;;;;;;11.45;5.25;;;;;;;14.15;47.50;100955.17;1712310;81;21107;-76
2022/04/28 06:45:28;;;;;;;20.75;15.20;;;;;;;14.19;47.13;100955.29;1747774;81;20981;-80
2022/04/28 06:47:54;;;;;;;18.10;8.08;;;;;;;14.29;46.19;100950.38;1757996;80;21872;-80
2022/04/28 06:50:41;;;;;;;14.07;5.47;;;;;;;14.42;45.86;100943.52;1732786;81;21499;-78
2022/04/28 06:53:25;;;;;;;15.30;5.47;;;;;;;14.53;45.68;100946.60;1736744;80;21404;-76
2022/04/28 06:56:02;;;;;;;28.30;7.03;;;;;;;14.62;45.66;100942.30;1738469;80;20999;-75
2022/04/28 06:58:31;;;;;;;21.42;7.75;;;;;;;14.74;45.55;100935.91;1698363;82;21075;-80
2022/04/28 07:00:59;;;;;;;36.50;8.65;;;;;;;14.86;45.27;100941.00;1707092;83;21562;-78
2022/04/28 07:03:28;;;;;;;34.25;8.40;;;;;;;14.97;44.50;100937.88;1710188;81;20993;-81
2022/04/28 07:05:56;;;;;;;30.32;9.13;;;;;;;15.13;44.10;100939.50;1690076;82;21662;-77
2022/04/28 07:08:25;;;;;;;33.45;8.80;;;;;;;15.32;44.38;100934.70;1726086;80;20967;-80
2022/04/28 07:10:54;;;;;;;26.68;8.00;;;;;;;15.48;43.02;100932.34;1711939;82;21021;-79
2022/04/28 07:13:21;;;;;;;24.50;7.50;;;;;;;15.62;41.64;100941.74;1739116;80;21929;-86
2022/04/28 07:16:07;;;;;;;25.90;7.75;;;;;;;15.71;41.54;100946.23;1719860;81;21025;-80
2022/04/28 07:18:36;;;;;;;17.73;5.60;;;;;;;15.79;41.42;100949.03;1701222;81;21178;-82
2022/04/28 07:21:04;;;;;;;19.15;6.33;;;;;;;15.83;40.83;100942.95;1722498;82;21559;-81
2022/04/28 07:23:32;;;;;;;16.95;5.53;;;;;;;15.87;40.23;100949.66;1705006;82;21059;-76
2022/04/28 07:25:59;;;;;;;16.77;4.97;;;;;;;15.88;39.86;100948.19;1708364;81;21993;-82
2022/04/28 07:28:28;;;;;;;11.53;4.45;;;;;;;15.88;40.27;100950.84;1725273;81;21042;-83
2022/04/28 07:31:04;;;;;;;8.08;4.40;;;;;;;15.92;41.09;100956.26;1673330;82;21043;-76
2022/04/28 07:33:51;;;;;;;9.63;3.70;;;;;;;15.96;40.61;100958.97;1691466;81;21012;-76
2022/04/28 07:36:37;;;;;;;8.83;3.98;;;;;;;16.04;40.31;100963.59;1727071;80;21051;-77
2022/04/28 07:39:20;;;;;;;10.55;4.90;;;;;;;16.11;40.28;100963.35;1733527;81;21775;-75
2022/04/28 07:42:07;;;;;;;12.20;5.78;;;;;;;16.18;40.71;100955.14;1743497;80;21074;-76
2022/04/28 07:44:36;;;;;;;14.93;5.53;;;;;;;16.25;42.06;100954.92;1754300;80;21032;-78
2022/04/28 07:47:08;;;;;;;10.80;6.60;;;;;;;16.35;42.97;100958.05;1681299;82;21095;-81
2022/04/28 07:49:37;;;;;;;9.83;4.87;;;;;;;16.41;42.80;100957.48;1730318;82;21047;-78
2022/04/28 07:52:05;;;;;;;9.53;4.42;;;;;;;16.41;42.85;100959.66;1722764;81;21842;-77
2022/04/28 07:54:35;;;;;;;12.30;4.90;;;;;;;16.41;42.73;100958.82;1708919;81;21060;-77
2022/04/28 07:57:03;;;;;;;12.85;4.62;;;;;;;16.47;42.70;100963.06;1731026;80;21074;-76
2022/04/28 07:59:32;;;;;;;8.35;3.80;;;;;;;16.50;42.03;100960.13;1719047;81;21420;-76
2022/04/28 08:02:03;;;;;;;11.60;3.70;;;;;;;16.52;42.23;100955.47;1688170;82;21031;-76
2022/04/28 08:04:33;;;;;;;11.38;4.05;;;;;;;16.63;42.45;100969.12;1709518;81;21840;-79
2022/04/28 08:07:00;;;;;;;15.38;8.50;;;;;;;16.74;42.05;100966.29;1733231;80;21038;-75
2022/04/28 08:09:30;;;;;;;13.53;5.67;;;;;;;16.81;41.72;100958.05;1730812;80;21673;-75
2022/04/28 08:11:59;;;;;;;15.30;6.55;;;;;;;16.93;41.48;100953.34;1757781;80;21172;-74
2022/04/28 08:14:29;;;;;;;11.95;6.17;;;;;;;17.02;41.31;100951.13;1737398;82;21020;-77
2022/04/28 08:16:57;;;;;;;10.82;5.60;;;;;;;17.15;41.42;100948.92;1711709;81;21962;-72
2022/04/28 08:19:30;;;;;;;20.45;13.88;;;;;;;17.28;40.21;100947.25;1735735;81;21524;-75
2022/04/28 08:22:02;;;;;;;19.75;11.48;;;;;;;17.38;40.65;100952.02;1729800;81;21099;-73
2022/04/28 08:24:30;;;;;;;19.00;6.12;;;;;;;17.55;40.38;100952.16;1710173;82;21031;-71
2022/04/28 08:26:57;;;;;;;15.30;8.45;;;;;;;17.67;40.36;100950.45;1741412;80;21048;-76
2022/04/28 08:29:26;;;;;;;11.38;7.75;;;;;;;17.84;40.96;100954.61;1720814;81;22331;-76
2022/04/28 08:31:59;;;;;;;10.50;6.35;;;;;;;18.03;40.01;100947.74;1738299;80;21661;-74
2022/04/28 08:34:27;;;;;;;17.73;6.17;;;;;;;18.22;39.19;100944.03;1739329;80;21210;-80
2022/04/28 08:36:56;;;;;;;13.15;5.95;;;;;;;18.27;37.18;100942.58;1731148;80;21645;-75
2022/04/28 08:39:25;;;;;;;10.35;5.55;;;;;;;18.16;36.59;100943.34;1725129;81;22252;-73
2022/04/28 08:41:53;;;;;;;9.00;4.67;;;;;;;18.08;37.47;100947.30;1727301;80;21874;-73
2022/04/28 08:44:25;;;;;;;12.80;6.42;;;;;;;18.03;36.22;100947.74;1725763;81;21554;-72
2022/04/28 08:46:54;;;;;;;14.75;5.90;;;;;;;18.03;36.85;100949.92;1734990;80;21518;-71
2022/04/28 08:49:29;;;;;;;12.10;6.50;;;;;;;18.11;36.86;100949.64;1739135;82;21139;-71
2022/04/28 08:51:59;;;;;;;19.87;12.07;;;;;;;18.13;37.06;100948.48;1715811;82;21431;-74
2022/04/28 08:54:28;;;;;;;8.28;4.72;;;;;;;18.25;36.88;100950.42;1732565;81;22554;-70
2022/04/28 08:56:57;;;;;;;9.73;4.05;;;;;;;18.42;35.22;100943.31;1751161;80;20976;-73
2022/04/28 08:59:25;;;;;;;7.97;3.70;;;;;;;18.51;36.59;100943.70;1737532;80;21667;-72
2022/04/28 09:01:56;;;;;;;8.33;3.42;;;;;;;18.64;35.79;100940.61;1708779;82;21436;-72
2022/04/28 09:04:28;;;;;;;8.93;3.62;;;;;;;18.70;34.56;100935.96;1637173;83;21037;-73
2022/04/28 09:07:13;;;;;;;5.47;2.30;;;;;;;18.70;34.55;100939.47;1712904;82;21863;-74
2022/04/28 09:10:07;;;;;;;8.00;3.27;;;;;;;18.73;34.81;100933.83;1738037;81;20988;-74
2022/04/28 09:15:54;;;;;;;5.53;3.87;;;;;;;18.92;34.18;100934.56;1741852;81;21518;-75
2022/04/28 09:18:22;;;;;;;5.25;2.77;;;;;;;19.08;33.23;100934.59;1735507;80;21072;-74
2022/04/28 09:20:50;;;;;;;2.40;1.85;;;;;;;19.07;32.36;100937.77;1699633;82;21950;-73
2022/04/28 09:23:21;;;;;;;6.03;3.10;;;;;;;18.92;31.81;100927.88;1710198;82;21427;-74
2022/04/28 09:25:52;;;;;;;5.20;2.52;;;;;;;18.72;30.47;100939.31;1724445;81;21029;-73
2022/04/28 09:28:20;;;;;;;12.30;6.62;;;;;;;18.49;31.03;100930.98;1745143;81;21109;-70
2022/04/28 09:30:51;;;;;;;7.75;5.58;;;;;;;18.24;32.09;100934.05;1739443;81;21545;-72
2022/04/28 09:33:38;;;;;;;4.30;2.67;;;;;;;18.10;32.81;100940.78;1729986;80;22357;-73
2022/04/28 09:36:12;;;;;;;7.10;4.47;;;;;;;18.09;32.71;100939.61;1757743;80;21025;-78
2022/04/28 09:38:53;;;;;;;7.55;3.12;;;;;;;18.06;32.11;100940.77;1717123;82;21221;-79
2022/04/28 09:44:12;;;;;;;3.52;2.05;;;;;;;18.00;32.81;100934.20;1695241;82;21682;-75
2022/04/28 09:46:43;;;;;;;4.55;2.10;;;;;;;18.00;30.87;100938.71;1727036;80;21000;-74
2022/04/28 09:49:12;;;;;;;4.65;2.95;;;;;;;17.90;30.77;100935.30;1718144;80;21028;-77
2022/04/28 09:51:41;;;;;;;3.20;2.15;;;;;;;17.82;30.88;100933.89;1732008;81;21139;-77
2022/04/28 09:54:19;;;;;;;5.97;1.80;;;;;;;17.79;31.16;100928.37;1724861;81;21039;-75
2022/04/28 09:56:51;;;;;;;4.12;1.70;;;;;;;17.83;31.65;100931.06;1740242;80;21010;-72
2022/04/28 09:59:23;;;;;;;4.08;1.55;;;;;;;17.85;31.59;100933.07;1708037;82;21756;-73
2022/04/28 10:01:51;;;;;;;4.60;1.98;;;;;;;17.86;32.27;100934.78;1691690;82;21352;-70
2022/04/28 10:04:23;;;;;;;3.65;2.12;;;;;;;17.91;30.62;100931.13;1729659;81;21044;-72
2022/04/28 10:07:09;;;;;;;2.87;1.50;;;;;;;17.91;31.14;100936.47;1714037;82;21494;-76
2022/04/28 10:09:39;;;;;;;2.08;1.00;;;;;;;18.00;31.12;100936.88;1734347;80;21443;-76
2022/04/28 10:12:11;;;;;;;1.12;0.90;;;;;;;17.98;30.77;100937.53;1725314;81;22549;-76
2022/04/28 10:14:54;;;;;;;;;;;;;;;17.98;30.87;100932.19;1725755;81;21095;-76
2022/04/28 10:17:47;;;;;;;3.55;1.70;;;;;;;18.02;31.09;100930.88;1713267;81;20162;-76
2022/04/28 10:20:29;;;;;;;1.67;1.17;;;;;;;18.06;31.37;100935.42;1738505;80;20945;-76
2022/04/28 10:23:02;;;;;;;4.00;1.10;;;;;;;18.13;31.65;100931.60;1718306;82;21367;-77
2022/04/28 10:34:17;;;;;;;6.03;2.35;;;;;;;18.81;31.28;100923.62;1697468;81;21085;-77
2022/04/28 10:36:54;;;;;;;4.33;2.37;;;;;;;18.91;31.29;100922.16;1743959;82;20993;-77
2022/04/28 10:39:39;;;;;;;7.75;2.50;;;;;;;18.97;31.75;100922.85;1728305;80;21909;-77
2022/04/28 10:42:23;;;;;;;4.30;2.45;;;;;;;19.00;32.30;100921.17;1719803;81;20953;-77
2022/04/28 10:44:57;;;;;;;5.97;2.33;;;;;;;19.02;32.37;100920.54;1743136;80;21100;-77
2022/04/28 10:47:42;;;;;;;3.50;2.22;;;;;;;19.01;32.12;100918.84;1745828;81;21087;-77
2022/04/28 10:50:26;;;;;;;4.00;2.60;;;;;;;18.99;32.43;100923.02;1761790;80;20946;-77
2022/04/28 10:52:56;;;;;;;3.72;1.75;;;;;;;19.00;32.50;100918.00;1739180;81;21835;-77
2022/04/28 10:55:26;;;;;;;3.22;1.70;;;;;;;18.93;31.45;100922.35;1748620;81;20974;-77
2022/04/28 10:57:54;;;;;;;5.12;1.70;;;;;;;18.83;31.11;100922.48;1736226;81;21555;-77
2022/04/28 11:00:35;;;;;;;8.65;2.25;;;;;;;18.74;31.79;100924.79;1692420;81;21126;-77
2022/04/28 11:03:04;;;;;;;4.28;2.10;;;;;;;18.71;31.25;100928.27;1718773;82;20969;-77
2022/04/28 11:05:37;;;;;;;2.30;1.60;;;;;;;18.59;31.96;100924.52;1709524;83;22456;-77
2022/04/28 11:08:07;;;;;;;3.35;1.67;;;;;;;18.56;32.61;100927.52;1706287;83;21065;-76
2022/04/28 11:11:02;;;;;;;3.60;1.60;;;;;;;18.58;31.50;100928.69;1664689;84;21062;-77
2022/04/28 11:13:32;;;;;;;2.83;1.40;;;;;;;18.45;31.49;100919.78;1690753;83;20932;-76
2022/04/28 11:16:01;;;;;;;2.25;1.55;;;;;;;18.33;31.88;100918.86;1688933;83;20953;-76
2022/04/28 11:18:29;;;;;;;2.10;1.30;;;;;;;18.19;31.91;100919.79;1684721;83;22453;-76
2022/04/28 11:20:59;;;;;;;1.85;1.10;;;;;;;18.07;32.03;100917.55;1729127;80;20984;-75
2022/04/28 11:23:37;;;;;;;2.00;1.30;;;;;;;17.98;31.78;100913.98;1724310;81;21013;-76
2022/04/28 11:26:06;;;;;;;2.12;1.40;;;;;;;17.95;32.48;100917.81;1729643;81;21218;-77
2022/04/28 11:28:35;;;;;;;2.42;1.40;;;;;;;18.00;33.16;100920.00;1756579;81;21142;-76
2022/04/28 11:31:11;;;;;;;4.67;1.85;;;;;;;18.05;32.94;100920.85;1747597;81;22553;-76
2022/04/28 11:33:42;;;;;;;4.90;1.80;;;;;;;18.05;32.64;100929.74;1754279;81;21389;-76
2022/04/28 11:36:17;;;;;;;3.10;1.60;;;;;;;18.01;33.32;100922.52;1740862;80;21013;-76
2022/04/28 11:38:58;;;;;;;3.20;1.40;;;;;;;17.99;33.34;100917.83;1714732;82;21188;-76
2022/04/28 11:41:39;;;;;;;2.77;1.40;;;;;;;18.06;33.71;100911.86;1674779;85;20962;-76
2022/04/28 11:44:14;;;;;;;2.67;1.40;;;;;;;18.12;32.84;100914.73;1733915;81;21945;-76
2022/04/28 11:46:49;;;;;;;2.90;1.35;;;;;;;18.16;33.14;100912.59;1714959;81;21431;-76
2022/04/28 11:49:18;;;;;;;6.25;1.90;;;;;;;18.20;33.14;100909.44;1722422;82;21007;-76
2022/04/28 11:51:46;;;;;;;4.12;1.80;;;;;;;18.25;32.98;100911.16;1708825;83;21039;-76
2022/04/28 11:54:23;;;;;;;3.10;1.77;;;;;;;18.29;33.11;100906.31;1710304;83;21045;-76
2022/04/28 11:56:51;;;;;;;3.30;1.80;;;;;;;18.33;33.63;100906.82;1723362;82;22585;-76
2022/04/28 11:59:18;;;;;;;4.20;1.77;;;;;;;18.31;32.30;100912.33;1712009;82;21404;-76
2022/04/28 12:01:46;;;;;;;3.30;1.72;;;;;;;18.29;33.01;100908.48;1709331;81;20957;-76
2022/04/28 12:04:16;;;;;;;5.67;1.90;;;;;;;18.35;33.34;100918.22;1706712;81;21178;-76
2022/04/28 12:06:48;;;;;;;3.65;1.75;;;;;;;18.33;32.17;100913.50;1745885;81;21024;-76
2022/04/28 12:14:51;;;;;;;2.33;1.20;;;;;;;18.14;32.40;100910.55;1715757;82;21364;-78
2022/04/28 12:20:11;;;;;;;2.62;1.50;;;;;;;18.07;33.23;100907.69;1704578;83;21071;-76
2022/04/28 12:22:41;;;;;;;3.83;1.45;;;;;;;18.05;33.30;100906.15;1703249;82;20984;-76